Data for 02/15/2013

Time Sea-Level Adjusted Pressure Absolute Pressure Temperature Relative Humidity Dew Point   
(mb) (inHg) (mb) (inHg) (C) (F) (%) (C) (F)
00:05 1026 30.3 855 25.25 0 32.1 56 -7.7 18.1
00:10 1026 30.3 855 25.25 0 32 56 -7.6 18.2
00:15 1026 30.3 855 25.25 -0 31.9 57 -7.5 18.4
00:20 1026 30.3 855 25.25 -0 31.9 57 -7.5 18.5
00:25 1026 30.3 855 25.25 -0.1 31.8 58 -7.5 18.5
00:30 1026 30.3 855 25.25 -0.1 31.8 58 -7.4 18.6
00:35 1026 30.3 855 25.25 -0.1 31.8 58 -7.4 18.7
00:40 1026 30.3 855 25.25 -0.2 31.7 58 -7.5 18.5
00:45 1026 30.3 855 25.25 -0.1 31.8 57 -7.6 18.3
00:50 1026 30.3 855 25.25 -0.1 31.8 58 -7.5 18.5
00:55 1026 30.3 855 25.25 -0.1 31.8 58 -7.4 18.6
01:00 1026 30.3 855 25.25 -0.1 31.8 57 -7.6 18.3
01:05 1026 30.3 855 25.25 -0 31.9 57 -7.6 18.3
01:10 1026 30.3 855 25.25 0 32 57 -7.6 18.4
01:15 1026 30.3 855 25.25 -0 32 56 -7.7 18.1
01:20 1026 30.3 856 25.28 -0 32 57 -7.6 18.3
01:25 1026 30.3 856 25.28 -0 31.9 57 -7.6 18.3
01:30 1026 30.3 856 25.28 -0 32 56 -7.8 17.9
01:35 1026 30.3 856 25.28 -0 32 56 -7.7 18.1
01:40 1027 30.33 856 25.28 -0 31.9 57 -7.6 18.3
01:45 1027 30.33 856 25.28 -0.1 31.8 57 -7.6 18.4
01:50 1027 30.33 856 25.28 -0.2 31.7 58 -7.4 18.6
01:55 1027 30.33 856 25.28 -0.2 31.6 59 -7.3 18.8
02:00 1027 30.33 856 25.28 -0.3 31.5 59 -7.3 18.9
02:05 1027 30.33 856 25.28 -0.4 31.3 60 -7.1 19.2
02:10 1027 30.33 856 25.28 -0.5 31.1 61 -7 19.3
02:15 1027 30.33 856 25.28 -0.5 31 62 -6.9 19.6
02:20 1027 30.33 856 25.28 -0.6 30.9 62 -7 19.4
02:25 1027 30.33 856 25.28 -0.6 30.9 63 -6.9 19.6
02:30 1027 30.33 856 25.28 -0.7 30.8 63 -6.8 19.8
02:35 1027 30.33 856 25.28 -0.8 30.6 63 -6.9 19.5
02:40 1027 30.33 856 25.28 -0.8 30.6 63 -7 19.5
02:45 1027 30.33 856 25.28 -0.8 30.6 63 -6.9 19.6
02:50 1027 30.33 856 25.28 -0.9 30.5 63 -6.9 19.5
02:55 1027 30.33 856 25.28 -0.9 30.5 63 -6.9 19.5
03:00 1027 30.33 856 25.28 -0.9 30.5 63 -6.9 19.5
03:05 1027 30.33 856 25.28 -0.9 30.4 64 -6.9 19.5
03:10 1027 30.33 856 25.28 -0.9 30.4 63 -7 19.4
03:15 1027 30.33 856 25.28 -0.9 30.3 64 -6.9 19.5
03:20 1027 30.33 856 25.28 -0.9 30.3 63 -7.1 19.3
03:25 1027 30.33 856 25.28 -0.9 30.3 64 -6.9 19.5
03:30 1027 30.33 856 25.28 -1 30.2 64 -6.9 19.6
03:35 1027 30.33 856 25.28 -1 30.1 64 -7 19.3
03:40 1027 30.33 856 25.28 -1 30.2 64 -7 19.4
03:45 1027 30.33 856 25.28 -1 30.2 63 -7.1 19.2
03:50 1027 30.33 856 25.28 -1 30.3 63 -7.1 19.2
03:55 1027 30.33 856 25.28 -0.9 30.3 63 -7.1 19.2
04:00 1027 30.33 856 25.28 -0.9 30.3 62 -7.2 19
04:05 1027 30.33 856 25.28 -0.9 30.3 63 -7.2 19.1
04:10 1027 30.33 856 25.28 -1 30.3 63 -7.2 19.1
04:15 1027 30.33 856 25.28 -1 30.2 63 -7.1 19.2
04:20 1027 30.33 856 25.28 -1 30.2 64 -7 19.4
04:25 1027 30.33 856 25.28 -1 30.2 64 -6.9 19.5
04:30 1027 30.33 856 25.28 -1 30.2 64 -7.1 19.3
04:35 1027 30.33 856 25.28 -1 30.2 63 -7.1 19.1
04:40 1027 30.33 856 25.28 -1 30.3 63 -7.1 19.2
04:45 1027 30.33 856 25.28 -0.9 30.3 63 -7.1 19.2
04:50 1027 30.33 856 25.28 -0.9 30.3 63 -7.2 19.1
04:55 1027 30.33 856 25.28 -0.9 30.4 63 -7.1 19.2
05:00 1027 30.33 856 25.28 -0.9 30.4 63 -7.1 19.1
05:05 1027 30.33 856 25.28 -0.9 30.4 63 -7.1 19.1
05:10 1027 30.33 856 25.28 -0.9 30.4 65 -6.8 19.8
05:15 1027 30.33 856 25.28 -1.1 30.1 65 -6.7 19.9
05:20 1027 30.33 856 25.28 -1.3 29.7 66 -6.8 19.7
05:25 1027 30.33 856 25.28 -1.3 29.6 65 -7 19.4
05:30 1027 30.33 856 25.28 -1.3 29.6 65 -7 19.3
05:35 1027 30.33 856 25.28 -1.3 29.6 65 -7 19.3
05:40 1027 30.33 856 25.28 -1.3 29.7 65 -7 19.3
05:45 1027 30.33 856 25.28 -1.3 29.7 65 -7 19.4
05:50 1027 30.33 856 25.28 -1.3 29.7 65 -7 19.4
05:55 1027 30.33 856 25.28 -1.4 29.5 66 -6.9 19.5
06:00 1027 30.33 856 25.28 -1.5 29.3 66 -6.9 19.5
06:05 1027 30.33 856 25.28 -1.6 29.2 66 -7 19.3
06:10 1027 30.33 856 25.28 -1.6 29.1 66 -7.1 19.2
06:15 1027 30.33 856 25.28 -1.6 29.1 66 -7.2 19.1
06:20 1027 30.33 856 25.28 -1.6 29.1 66 -7.2 19
06:25 1027 30.33 856 25.28 -1.6 29.1 66 -7.1 19.2
06:30 1027 30.33 857 25.31 -1.6 29.1 67 -7 19.3
06:35 1027 30.33 857 25.31 -1.7 28.9 67 -7 19.4
06:40 1028 30.36 857 25.31 -1.8 28.8 67 -7 19.4
06:45 1028 30.36 857 25.31 -1.9 28.6 68 -7 19.4
06:50 1028 30.36 857 25.31 -2 28.4 69 -6.9 19.5
06:55 1028 30.36 857 25.31 -2 28.3 68 -7.1 19.2
07:00 1028 30.36 857 25.31 -1.9 28.5 68 -7.1 19.2
07:05 1028 30.36 857 25.31 -2 28.4 69 -6.9 19.6
07:10 1028 30.36 857 25.31 -2.2 28.1 71 -6.8 19.8
07:15 1028 30.36 857 25.31 -2.4 27.6 70 -7.2 19
07:20 1028 30.36 857 25.31 -2.3 27.9 68 -7.3 18.8
07:25 1028 30.36 857 25.31 -2.1 28.3 66 -7.5 18.5
07:30 1028 30.36 857 25.31 -2 28.4 65 -7.6 18.3
07:35 1028 30.36 857 25.31 -1.9 28.5 65 -7.7 18.1
07:40 1028 30.36 857 25.31 -1.9 28.6 65 -7.7 18.2
07:45 1028 30.36 857 25.31 -2 28.5 64 -7.8 17.9
07:50 1028 30.36 857 25.31 -1.9 28.5 63 -8 17.6
07:55 1028 30.36 857 25.31 -1.8 28.7 63 -8.1 17.5
08:00 1028 30.36 857 25.31 -1.8 28.8 61 -8.3 17.1
08:05 1028 30.36 857 25.31 -1.8 28.8 62 -8.1 17.3
08:10 1028 30.36 857 25.31 -1.8 28.8 60 -8.4 16.8
08:15 1028 30.36 857 25.31 -1.8 28.8 60 -8.5 16.6
08:20 1028 30.36 857 25.31 -1.7 29 60 -8.5 16.7
08:25 1028 30.36 857 25.31 -1.7 29 60 -8.5 16.7
08:30 1028 30.36 857 25.31 -1.8 28.8 60 -8.5 16.7
08:35 1028 30.36 857 25.31 -1.9 28.6 60 -8.6 16.5
08:40 1028 30.36 857 25.31 -1.8 28.7 60 -8.6 16.6
08:45 1028 30.36 857 25.31 -1.9 28.6 60 -8.6 16.5
08:50 1028 30.36 857 25.31 -1.9 28.6 60 -8.7 16.4
08:55 1028 30.36 857 25.31 -1.8 28.7 59 -8.8 16.2
09:00 1028 30.36 857 25.31 -1.7 29 58 -8.8 16.2
09:05 1028 30.36 857 25.31 -1.6 29.1 59 -8.7 16.4
09:10 1028 30.36 857 25.31 -1.8 28.7 59 -8.7 16.3
09:15 1028 30.36 857 25.31 -1.7 29 58 -8.9 16
09:20 1028 30.36 857 25.31 -1.4 29.4 57 -8.8 16.1
09:25 1028 30.36 857 25.31 -1.4 29.5 57 -8.8 16.2
09:30 1028 30.36 857 25.31 -1.7 28.9 58 -8.8 16.1
09:35 1028 30.36 857 25.31 -1.6 29.1 58 -8.8 16.1
09:40 1028 30.36 858 25.34 -1.5 29.3 58 -8.8 16.1
09:45 1028 30.36 858 25.34 -1.3 29.7 57 -8.8 16.2
09:50 1028 30.36 858 25.34 -1 30.3 56 -8.6 16.5
09:55 1028 30.36 858 25.34 -0.8 30.6 55 -8.6 16.5
10:00 1028 30.36 858 25.34 -0.1 31.8 53 -8.7 16.4
10:05 1028 30.36 858 25.34 0.3 32.6 52 -8.4 16.8
10:10 1028 30.36 858 25.34 0.6 33.1 51 -8.5 16.7
10:15 1028 30.36 858 25.34 0.9 33.7 50 -8.3 17
10:20 1028 30.36 858 25.34 1.3 34.3 49 -8.3 17
10:25 1029 30.39 858 25.34 1.5 34.7 49 -8.2 17.3
10:30 1029 30.39 858 25.34 2 35.5 47 -8.2 17.2
10:35 1028 30.36 858 25.34 2.3 36.2 47 -8 17.6
10:40 1028 30.36 858 25.34 2.4 36.2 46 -8.2 17.2
10:45 1028 30.36 858 25.34 2.4 36.4 47 -7.8 17.9
10:50 1028 30.36 858 25.34 1.9 35.4 48 -8.1 17.4
10:55 1028 30.36 858 25.34 1.9 35.4 48 -8 17.5
11:00 1028 30.36 858 25.34 1.8 35.2 48 -8 17.6
11:05 1028 30.36 858 25.34 1.7 35 48 -8.3 17.1
11:10 1028 30.36 858 25.34 1.8 35.2 47 -8.4 16.8
11:15 1028 30.36 858 25.34 2.4 36.3 46 -8.1 17.4
11:20 1028 30.36 858 25.34 2.7 36.8 45 -8.2 17.3
11:25 1028 30.36 857 25.31 3.2 37.7 44 -8 17.5
11:30 1028 30.36 857 25.31 3.9 39 41 -8.1 17.3
11:35 1028 30.36 857 25.31 3.8 38.9 42 -7.9 17.8
11:40 1028 30.36 857 25.31 3.1 37.6 43 -8.4 16.9
11:45 1028 30.36 857 25.31 2.4 36.3 45 -8.4 17
11:50 1028 30.36 857 25.31 2.5 36.6 45 -8.1 17.3
11:55 1028 30.36 857 25.31 2.3 36.2 44 -8.7 16.3
12:00 1028 30.36 857 25.31 3.2 37.8 42 -8.5 16.8
12:05 1028 30.36 857 25.31 3.3 37.9 41 -8.7 16.4
12:10 1028 30.36 857 25.31 3.8 38.9 40 -8.4 16.8
12:15 1028 30.36 857 25.31 4.4 39.9 38 -8.7 16.3
12:20 1028 30.36 857 25.31 4.4 40 40 -8 17.7
12:25 1028 30.36 857 25.31 3.2 37.8 43 -8 17.5
12:30 1028 30.36 857 25.31 3.2 37.7 43 -8.3 17
12:35 1028 30.36 857 25.31 3.6 38.4 42 -8.2 17.3
12:40 1028 30.36 857 25.31 2.8 37.1 43 -8.6 16.4
12:45 1028 30.36 857 25.31 3.5 38.3 42 -8.3 17.1
12:50 1028 30.36 857 25.31 4.1 39.4 38 -8.9 16
12:55 1028 30.36 857 25.31 4.3 39.7 41 -7.8 17.9
13:00 1028 30.36 857 25.31 3.8 38.9 41 -8.3 17.1
13:05 1027 30.33 857 25.31 3.7 38.7 41 -8.3 17
13:10 1027 30.33 857 25.31 3.9 39.1 37 -9.5 15
13:15 1027 30.33 857 25.31 4.1 39.5 39 -8.5 16.7
13:20 1027 30.33 856 25.28 4.6 40.2 36 -9.2 15.5
13:25 1027 30.33 856 25.28 5.2 41.4 33 -9.7 14.5
13:30 1027 30.33 856 25.28 4.8 40.7 34 -9.8 14.3
13:35 1027 30.33 856 25.28 5.3 41.5 34 -9.3 15.3
13:40 1027 30.33 856 25.28 4.9 40.8 33 -10 14
13:45 1027 30.33 856 25.28 5.3 41.5 34 -9.5 14.8
13:50 1027 30.33 856 25.28 5.5 41.9 32 -9.9 14.2
13:55 1027 30.33 856 25.28 4.9 40.8 33 -10 14.1
14:00 1027 30.33 856 25.28 5.4 41.8 34 -9.3 15.2
14:05 1027 30.33 856 25.28 5.7 42.2 32 -9.8 14.4
14:10 1027 30.33 856 25.28 5.4 41.6 33 -9.7 14.5
14:15 1027 30.33 856 25.28 5.5 42 35 -8.7 16.3
14:20 1027 30.33 856 25.28 5.8 42.4 32 -9.5 14.9
14:25 1027 30.33 856 25.28 5.5 41.9 33 -9.6 14.7
14:30 1027 30.33 856 25.28 5.4 41.7 34 -9.2 15.4
14:35 1027 30.33 856 25.28 5.2 41.4 36 -8.5 16.7
14:40 1027 30.33 856 25.28 5.2 41.3 37 -8.4 16.8
14:45 1027 30.33 856 25.28 4.6 40.3 38 -8.5 16.7
14:50 1027 30.33 856 25.28 4.3 39.8 39 -8.4 16.9
14:55 1027 30.33 856 25.28 4.6 40.3 35 -9.5 14.9
15:00 1027 30.33 856 25.28 5 41 36 -8.8 16.2
15:05 1027 30.33 856 25.28 5.6 42.1 32 -9.7 14.5
15:10 1026 30.3 856 25.28 6.1 43 32 -9.3 15.2
15:15 1026 30.3 856 25.28 6.5 43.6 33 -8.9 16.1
15:20 1026 30.3 856 25.28 6.2 43.2 32 -9.4 15.1
15:25 1026 30.3 856 25.28 5.9 42.6 33 -9.1 15.7
15:30 1026 30.3 856 25.28 5.8 42.5 33 -9.3 15.2
15:35 1026 30.3 856 25.28 5.7 42.2 32 -9.7 14.6
15:40 1026 30.3 855 25.25 5.3 41.5 34 -9.5 14.9
15:45 1026 30.3 855 25.25 5.4 41.7 34 -9.3 15.3
15:50 1026 30.3 855 25.25 5.2 41.4 33 -9.8 14.3
15:55 1026 30.3 855 25.25 5.8 42.4 32 -9.6 14.8
16:00 1026 30.3 855 25.25 6.3 43.4 32 -9 15.7
16:05 1026 30.3 855 25.25 6.1 43 32 -9.4 15.1
16:10 1026 30.3 855 25.25 5.6 42.1 34 -9.2 15.4
16:15 1026 30.3 855 25.25 6 42.7 33 -9.1 15.7
16:20 1026 30.3 855 25.25 5.7 42.2 32 -9.7 14.6
16:25 1026 30.3 855 25.25 6.4 43.6 31 -9.6 14.8
16:30 1026 30.3 855 25.25 6.8 44.2 32 -8.7 16.3
16:35 1026 30.3 855 25.25 7.3 45.1 30 -9.4 15.2
16:40 1026 30.3 855 25.25 6.8 44.3 31 -9 15.7
16:45 1026 30.3 855 25.25 6.4 43.5 33 -8.9 16
16:50 1026 30.3 855 25.25 6.3 43.3 32 -9.4 15.1
16:55 1026 30.3 855 25.25 5.8 42.5 34 -8.9 16
17:00 1026 30.3 855 25.25 6.5 43.7 30 -9.7 14.6
17:05 1026 30.3 855 25.25 6.6 43.9 32 -9 15.9
17:10 1026 30.3 855 25.25 5.9 42.7 33 -9 15.8
17:15 1026 30.3 855 25.25 5.8 42.4 33 -9.4 15.2
17:20 1026 30.3 855 25.25 6.2 43.1 33 -9 15.7
17:25 1026 30.3 855 25.25 6.3 43.4 32 -9.2 15.4
17:30 1026 30.3 855 25.25 6.9 44.4 31 -9.1 15.6
17:35 1025 30.27 855 25.25 6.6 43.9 32 -8.8 16.2
17:40 1025 30.27 855 25.25 6.3 43.4 33 -8.9 16
17:45 1025 30.27 855 25.25 6.7 44.1 31 -9.1 15.6
17:50 1025 30.27 855 25.25 6.8 44.3 32 -8.6 16.6
17:55 1025 30.27 855 25.25 6.8 44.3 33 -8.5 16.8
18:00 1025 30.27 855 25.25 6.3 43.4 33 -8.7 16.3
18:05 1025 30.27 855 25.25 6.3 43.4 33 -8.6 16.5
18:10 1025 30.27 854 25.22 6.2 43.2 34 -8.6 16.6
18:15 1025 30.27 854 25.22 6.4 43.5 33 -8.8 16.1
18:20 1025 30.27 854 25.22 6.3 43.4 34 -8.6 16.6
18:25 1025 30.27 854 25.22 5.6 42.2 36 -8.3 17
18:30 1025 30.27 854 25.22 5.4 41.8 35 -8.7 16.4
18:35 1025 30.27 854 25.22 5.4 41.7 37 -8.2 17.3
18:40 1025 30.27 854 25.22 4.8 40.6 38 -8.4 16.9
18:45 1025 30.27 854 25.22 4.5 40 39 -8.3 17.1
18:50 1025 30.27 854 25.22 4.3 39.7 39 -8.6 16.5
18:55 1025 30.27 854 25.22 4.2 39.6 38 -8.8 16.2
19:00 1025 30.27 854 25.22 4.1 39.4 41 -8.1 17.4
19:05 1025 30.27 854 25.22 3.6 38.5 42 -8.1 17.4
19:10 1025 30.27 854 25.22 3.2 37.8 43 -8.2 17.2
19:15 1025 30.27 854 25.22 2.8 37 45 -8.1 17.4
19:20 1025 30.27 854 25.22 2.7 36.9 43 -8.6 16.6
19:25 1025 30.27 854 25.22 2.8 37 44 -8.2 17.3
19:30 1025 30.27 854 25.22 2.3 36.2 44 -8.8 16.2
19:35 1025 30.27 854 25.22 2.8 37 44 -8.4 16.9
19:40 1025 30.27 854 25.22 2.6 36.7 44 -8.5 16.8
19:45 1025 30.27 854 25.22 2.3 36.1 47 -8.1 17.5
19:50 1025 30.27 854 25.22 1.7 35.1 48 -8.1 17.4
19:55 1025 30.27 854 25.22 1.7 35.1 47 -8.4 16.9
20:00 1025 30.27 854 25.22 2.1 35.7 48 -7.8 17.9
20:05 1025 30.27 854 25.22 2 35.5 49 -7.7 18.1
20:10 1025 30.27 854 25.22 1.8 35.2 49 -7.8 17.9
20:15 1025 30.27 854 25.22 1.9 35.4 50 -7.4 18.6
20:20 1025 30.27 854 25.22 1.5 34.6 52 -7.4 18.7
20:25 1025 30.27 854 25.22 1.5 34.7 51 -7.7 18.2
20:30 1025 30.27 854 25.22 2.2 36 49 -7.3 18.8
20:35 1025 30.27 854 25.22 2.4 36.2 50 -7.1 19.1
20:40 1025 30.27 854 25.22 2.3 36.1 50 -7.1 19.3
20:45 1025 30.27 854 25.22 2.2 36 50 -7.1 19.2
20:50 1025 30.27 854 25.22 2.4 36.4 49 -7.2 19.1
20:55 1025 30.27 854 25.22 2.6 36.7 48 -7.3 18.9
21:00 1025 30.27 854 25.22 2.8 37 48 -7.3 18.9
21:05 1025 30.27 854 25.22 3 37.3 47 -7.2 19
21:10 1025 30.27 854 25.22 3.1 37.5 47 -7 19.3
21:15 1025 30.27 854 25.22 3.2 37.8 47 -6.9 19.6
21:20 1025 30.27 854 25.22 3.3 38 47 -7 19.4
21:25 1025 30.27 854 25.22 3.3 38 47 -7 19.4
21:30 1025 30.27 854 25.22 3.2 37.7 49 -6.6 20.1
21:35 1025 30.27 854 25.22 2.5 36.5 51 -6.7 19.9
21:40 1025 30.27 854 25.22 2 35.7 52 -6.8 19.8
21:45 1025 30.27 854 25.22 1.9 35.4 52 -6.8 19.7
21:50 1025 30.27 854 25.22 1.7 35.1 53 -6.9 19.7
21:55 1025 30.27 854 25.22 1.8 35.2 53 -6.9 19.6
22:00 1025 30.27 854 25.22 1.9 35.4 52 -7 19.4
22:05 1025 30.27 854 25.22 2.1 35.8 53 -6.5 20.3
22:10 1024 30.24 854 25.22 1.9 35.4 53 -6.7 19.9
22:15 1025 30.27 854 25.22 2 35.7 52 -6.8 19.7
22:20 1025 30.27 854 25.22 2 35.5 53 -6.6 20
22:25 1024 30.24 854 25.22 1.8 35.3 54 -6.5 20.3
22:30 1024 30.24 854 25.22 1.4 34.6 56 -6.5 20.3
22:35 1024 30.24 854 25.22 0.7 33.2 59 -6.4 20.4
22:40 1024 30.24 854 25.22 0.1 32.1 60 -6.8 19.7
22:45 1024 30.24 854 25.22 -0.2 31.6 61 -7 19.5
22:50 1024 30.24 854 25.22 -0.3 31.4 63 -6.5 20.3
22:55 1024 30.24 853 25.19 -0 31.9 61 -6.6 20.1
23:00 1024 30.24 853 25.19 0.2 32.4 60 -6.6 20.1
23:05 1024 30.24 853 25.19 0.1 32.1 60 -6.9 19.6
23:10 1024 30.24 853 25.19 0 32 59 -7.1 19.3
23:15 1024 30.24 853 25.19 0.2 32.4 60 -6.7 19.9
23:20 1024 30.24 853 25.19 0.2 32.4 60 -6.7 19.9
23:25 1024 30.24 853 25.19 0.2 32.3 61 -6.5 20.3
23:30 1024 30.24 853 25.19 0.2 32.3 60 -6.7 19.9
23:35 1024 30.24 853 25.19 0.2 32.4 60 -6.7 19.9
23:40 1024 30.24 853 25.19 0.3 32.5 58 -7.2 19.1
23:45 1024 30.24 853 25.19 0.2 32.3 58 -7.2 19
23:50 1024 30.24 853 25.19 0.1 32.2 58 -7.1 19.3
23:55 1024 30.24 853 25.19 -0.1 31.9 58 -7.3 18.9
24:00 1024 30.24 853 25.19 -0.1 31.7 59 -7.3 18.9